Date,TemperatureHighF,TemperatureAvgF,TemperatureLowF,DewpointHighF,DewpointAvgF,DewpointLowF,HumidityHigh,HumidityAvg,HumidityLow,PressureMaxIn,PressureMinIn,WindSpeedMaxMPH,WindSpeedAvgMPH,GustSpeedMaxMPH,PrecipitationSumIn
2013-1-1,35.6,32.0,25.2,24.8,16.0,8.8,69,52,44,29.80,29.66,28,9,34,0.00
2013-1-2,27.0,18.9,11.2,15.9,7.7,2.3,71,61,52,29.98,29.83,29,6,29,0.00
2013-1-3,24.4,14.2,2.1,2.0,-3.2,-7.0,67,47,28,30.07,29.95,17,4,17,0.00
2013-1-4,36.5,31.1,20.2,23.1,20.5,14.7,79,65,54,29.90,29.74,23,6,24,0.00
2013-1-5,40.3,31.6,20.3,23.8,19.5,15.6,84,62,39,30.20,29.77,18,4,25,0.00
2013-1-6,41.0,29.8,20.9,27.0,23.1,16.7,86,76,56,30.17,29.87,15,2,20,0.00
2013-1-7,35.6,31.6,24.9,27.1,21.5,14.8,88,68,43,30.35,29.89,17,3,20,0.00
2013-1-8,44.3,38.5,27.0,27.6,26.2,21.4,81,62,50,30.27,30.19,24,6,24,0.00
2013-1-9,42.6,34.6,21.9,33.4,26.4,19.7,92,73,58,30.34,29.94,13,2,14,0.00
2013-1-10,45.5,41.3,37.8,27.3,23.9,22.0,58,50,41,30.41,29.96,26,9,35,0.00
2013-1-11,38.8,33.9,23.5,31.2,26.2,20.2,88,74,66,30.45,30.22,7,1,7,0.00
2013-1-14,59.4,53.0,44.6,50.4,43.6,33.4,92,72,44,30.09,29.77,21,6,24,0.00
2013-1-15,39.3,36.8,32.5,25.2,24.2,23.1,71,60,53,30.25,30.16,9,2,10,0.00
2013-1-16,31.3,30.1,28.0,29.8,28.3,25.8,94,93,90,30.08,29.76,8,2,9,0.07
2013-1-17,39.9,34.9,28.5,32.1,27.6,19.6,92,75,57,30.03,29.80,20,4,22,0.37
2013-1-18,23.2,19.3,15.4,0.3,-2.5,-6.1,48,38,29,30.38,30.13,22,7,26,0.00
2013-1-19,46.5,35.5,20.3,30.6,20.8,4.6,71,55,40,30.32,29.81,18,6,26,0.00
2013-1-20,51.7,39.8,27.0,31.4,24.4,9.6,72,55,33,29.85,29.47,31,9,39,0.00
2013-1-21,26.2,23.4,19.1,17.8,6.9,2.4,85,50,41,30.03,29.87,13,5,16,0.00
2013-1-22,22.7,19.6,15.6,15.9,5.7,-2.7,90,56,37,29.95,29.72,21,8,22,0.00
2013-1-23,13.8,10.4,6.7,-1.1,-9.2,-14.0,63,41,28,30.08,29.99,24,8,28,0.00
2013-1-24,17.9,8.3,-0.1,-8.0,-10.1,-12.3,61,44,26,30.07,29.99,26,7,31,0.00
2013-1-25,22.2,16.1,6.2,-5.8,-8.2,-10.4,48,33,25,30.24,30.07,18,6,20,0.00
2013-1-26,22.5,15.8,10.3,9.5,0.5,-8.9,83,54,27,30.17,29.94,16,6,23,0.00
2013-1-27,29.0,19.3,11.2,1.8,-0.7,-6.0,62,43,27,30.40,30.16,18,6,24,0.00
2013-1-28,28.5,22.5,16.5,22.2,8.0,-0.7,91,56,31,30.39,30.03,12,2,12,0.00
2013-1-29,31.9,28.6,23.7,28.6,25.3,21.2,91,87,84,30.13,30.03,6,2,6,0.07
2013-1-30,59.9,50.1,35.3,55.4,47.8,34.0,96,92,84,29.93,29.51,24,6,25,0.13
2013-1-31,59.3,46.1,34.8,56.9,33.9,17.8,92,64,39,29.40,28.90,36,13,37,0.47